Chuluota, FL (32766)

3:02 PM EDT on October 30, 2014 (GMT -0400)
Lake Pickett | Change Station
CLOSE
Current Station
Personal Weather Station
Location: Orlando, FL
Elevation: 64 ft
Nearby Weather Stations

Elev 64 ft 28.61 °N, 81.12 °W | Updated 7 minutes ago

Mostly Cloudy
Mostly Cloudy
84.1 °F
Feels Like 87 °F
N
2.0
Wind Variable Wind from NW

Today
High -- | Low -- °F
--% Chance of Precip.
Yesterday
High -- | Low -- °F
Precip. -- in
7:35 AM 6:40 PM
Waxing Crescent, 46% visible
Pressure 29.90 in
Visibility 10.0 miles
Clouds Few 4900 ft
Mostly Cloudy 11000 ft
Heat Index 87 °F
Dew Point 68 °F
Humidity 58%
Rainfall 0.00 in
Snow Depth Not available.
UV 4 out of 12
Pollen 4.90 out of 12
Air Quality Not available.
Flu Activity Not available.
METAR KSFB 301853Z 34007KT 10SM FEW049 BKN110 28/18 A2990 RMK AO2 SLP124 T02780178

More Conditions Fewer Conditions

Pressure 29.90 in
Visibility 10.0 miles
Clouds Few 4900 ft
Mostly Cloudy 11000 ft
Heat Index 87 °F
Dew Point 68 °F
Humidity 58%
Rainfall 0.00 in
Snow Depth Not available.
UV 4 out of 12
Pollen 4.90 out of 12
Air Quality Not available.
Flu Activity Not available.
METAR KSFB 301853Z 34007KT 10SM FEW049 BKN110 28/18 A2990 RMK AO2 SLP124 T02780178

More Conditions Fewer Conditions

Nowcast | as of 12:13 PM EDT on October 30, 2014

Scattered showers will move northeast from Northern Lake toward Volusia County into mid afternoon. Rainfall amounts will generally be light...less than a quarter inch. The remainder of east central Florida will see temperatures climb into the mid 80s by 3 PM with mostly sunny skies from Osceola and Brevard County south to Lake Okeechobee and the Treasure Coast. Additional details...including graphics are available online at: http://www.Srh.NOAA.Gov/mlb/blog.Php

×

10-Day Weather Forecast

Almanac

Astronomy

Oct. 30, 2014 Rise Set
Actual Time
Civil Twilight
Nautical Twilight
Astronomical Twilight
Moon
Length of Visible Light
Length of Day
Tomorrow will be .
, % of the Moon is Illuminated

Today's Extremes

State Highs State Lows

Community

WunderPhotos

Upload Photos

1,766,439 photos uploaded!

WunderBlogs® & News

Nearby

Air Quality

  Air Quality AQ Index Pollutant
Not available.

Snow Depth

Station Depth Elevation

Earthquake Activity

City Distance Mag. Time & Date
Minimum magnitude displayed is 2.5.

Coastal Water Temperatures

Place Temperature

Nearby Weather Stations